Portada
METAR-TAF:

METAR-TAF

Aeroports :

Aghajari, Iran

latitud: 30-46N, longitud: 049-40E, altitud: 29 m

Observació

L'informe es va fer fa 18 minuts, a les 11:00 UTC
Vent 19 kt del Sud/Sud-Est
Temperatura 33°C
Humitat 30%
Pressió 1007 hPa
Visibilitat 10 km o més
Escasses núvols a una alçada de 3500 ft, Cumulonimbus.
Núvols disperses a una alçada de 4000 ft

METAR: OIAG 091100Z 15019KT 9999 FEW035CB SCT040 33/13 Q1007

Hora: 15:48 (11:18 UTC)


TAF: manca

Observacions i pronòstics meteorològics de més de 4000 aeroports (METAR i TAF).

Les estacions disponibles són els punts grocs i vermells al mapa.

Posi el ratolí al punt desitjat per veure el nom de l'estació.

Feu clic per veure les observacions i els pronòstics meteorològics.

Per canviar el mapa: feu clic els botons verds amb una creu de color negre per apropar; al botó verd amb un guió per allunyar la imatge; o en les fletxes verdes per a mapes adjacents.


METAR-TAF: